createdAt,value
2022-08-23T00:01:21.223Z,95010.38
2022-08-23T00:03:53.924Z,95009.16
2022-08-23T00:06:22.721Z,95009.56
2022-08-23T00:08:53.336Z,95004.84
2022-08-23T00:11:30.867Z,95005.03
2022-08-23T00:14:00.684Z,95006.72
2022-08-23T00:16:29.316Z,95000.91
2022-08-23T00:18:57.377Z,95005.13
2022-08-23T00:21:25.328Z,95001.31
2022-08-23T00:23:54.687Z,95004.16
2022-08-23T00:26:23.286Z,95003.88
2022-08-23T00:28:51.487Z,95005.94
2022-08-23T00:31:21.028Z,94990.59
2022-08-23T00:33:49.013Z,95003.97
2022-08-23T00:36:17.527Z,94996.09
2022-08-23T00:38:45.642Z,94998.84
2022-08-23T00:41:15.029Z,95008.91
2022-08-23T00:44:00.927Z,95003.13
2022-08-23T00:47:00.214Z,95003.13
2022-08-23T00:49:29.581Z,95002.13
2022-08-23T00:52:02.796Z,94994.66
2022-08-23T00:54:32.460Z,94998.38
2022-08-23T00:57:06.615Z,94997.00
2022-08-23T00:59:35.036Z,94999.16
2022-08-23T01:02:04.277Z,95000.13
2022-08-23T01:04:35.463Z,94998.91
2022-08-23T01:07:08.681Z,94998.69
2022-08-23T01:09:39.044Z,94992.81
2022-08-23T01:12:15.171Z,94996.53
2022-08-23T01:14:49.074Z,95000.44
2022-08-23T01:17:21.407Z,94999.22
2022-08-23T01:19:53.536Z,94999.00
2022-08-23T01:22:28.412Z,94988.69
2022-08-23T01:25:07.203Z,94992.13
2022-08-23T01:27:43.156Z,95000.00
2022-08-23T01:30:17.064Z,95006.31
2022-08-23T01:32:50.045Z,95004.75
2022-08-23T01:37:52.957Z,95005.28
2022-08-23T01:40:23.182Z,95002.50
2022-08-23T01:42:51.325Z,95014.91
2022-08-23T01:45:19.618Z,95013.63
2022-08-23T01:47:47.687Z,95015.28
2022-08-23T01:50:16.388Z,95010.84
2022-08-23T01:52:46.697Z,95017.78
2022-08-23T01:55:17.686Z,95010.91
2022-08-23T01:57:50.213Z,95005.69
2022-08-23T02:00:21.926Z,95012.13
2022-08-23T02:02:50.043Z,95011.06
2022-08-23T02:05:19.241Z,95015.88
2022-08-23T02:07:48.831Z,95017.44
2022-08-23T02:10:19.255Z,95021.97
2022-08-23T02:12:48.873Z,95013.50
2022-08-23T02:15:18.738Z,95025.44
2022-08-23T02:17:48.616Z,95029.72
2022-08-23T02:20:17.063Z,95026.56
2022-08-23T02:22:45.059Z,95025.56
2022-08-23T02:25:13.058Z,95028.28
2022-08-23T02:27:44.118Z,95037.31
2022-08-23T02:30:15.570Z,95030.38
2022-08-23T02:32:44.109Z,95035.72
2022-08-23T02:35:13.374Z,95028.28
2022-08-23T02:37:41.355Z,95024.56
2022-08-23T02:40:10.871Z,95024.56
2022-08-23T02:42:39.739Z,95030.44
2022-08-23T02:45:09.829Z,95025.13
2022-08-23T02:47:46.812Z,95029.06
2022-08-23T02:50:26.562Z,95030.44
2022-08-23T02:52:54.984Z,95033.59
2022-08-23T02:55:23.748Z,95028.84
2022-08-23T02:57:51.710Z,95019.38
2022-08-23T03:00:20.639Z,95030.25
2022-08-23T03:02:52.827Z,95025.75
2022-08-23T03:05:21.169Z,95023.38
2022-08-23T03:07:49.213Z,95033.47
2022-08-23T03:10:17.532Z,95034.25
2022-08-23T03:12:54.176Z,95038.53
2022-08-23T03:15:22.210Z,95031.44
2022-08-23T03:17:50.408Z,95042.06
2022-08-23T03:20:20.700Z,95046.06
2022-08-23T03:22:54.698Z,95036.59
2022-08-23T03:25:25.531Z,95036.88
2022-08-23T03:28:25.915Z,95044.50
2022-08-23T03:30:54.677Z,95040.22
2022-08-23T03:33:23.750Z,95048.22
2022-08-23T03:35:53.345Z,95045.56
2022-08-23T03:38:21.344Z,95045.06
2022-08-23T03:40:52.527Z,95045.63
2022-08-23T03:43:20.899Z,95042.56
2022-08-23T03:45:49.356Z,95048.38
2022-08-23T03:48:17.758Z,95043.66
2022-08-23T03:50:46.771Z,95046.34
2022-08-23T03:53:17.369Z,95038.97
2022-08-23T03:55:48.208Z,95045.84
2022-08-23T03:58:19.327Z,95044.81
2022-08-23T04:00:47.399Z,95049.28
2022-08-23T04:03:15.705Z,95055.91
2022-08-23T04:06:14.161Z,95060.16
2022-08-23T04:08:44.066Z,95051.16
2022-08-23T04:11:14.534Z,95059.06
2022-08-23T04:13:53.322Z,95065.00
2022-08-23T04:16:21.550Z,95066.09
2022-08-23T04:18:50.735Z,95069.31
2022-08-23T04:21:24.702Z,95075.91
2022-08-23T04:23:54.234Z,95080.97
2022-08-23T04:26:23.643Z,95079.38
2022-08-23T04:28:56.305Z,95086.25
2022-08-23T04:31:26.206Z,95084.34
2022-08-23T04:33:55.650Z,95089.41
2022-08-23T04:36:25.311Z,95082.00
2022-08-23T04:38:54.867Z,95088.84
2022-08-23T04:41:40.313Z,95085.94
2022-08-23T04:44:08.296Z,95085.69
2022-08-23T04:46:36.655Z,95091.00
2022-08-23T04:49:04.964Z,95104.78
2022-08-23T04:51:33.373Z,95097.13
2022-08-23T04:54:02.837Z,95098.47
2022-08-23T04:56:37.378Z,95104.31
2022-08-23T04:59:06.053Z,95109.06
2022-08-23T05:01:35.001Z,95103.28
2022-08-23T05:04:04.013Z,95104.88
2022-08-23T05:06:33.281Z,95104.88
2022-08-23T05:09:02.785Z,95110.13
2022-08-23T05:11:33.689Z,95112.22
2022-08-23T05:14:01.886Z,95112.72
2022-08-23T05:16:30.664Z,95115.94
2022-08-23T05:19:04.087Z,95118.06
2022-08-23T05:21:34.755Z,95119.41
2022-08-23T05:24:05.324Z,95124.41
2022-08-23T05:26:33.804Z,95128.66
2022-08-23T05:29:01.948Z,95128.66
2022-08-23T05:31:36.404Z,95131.81
2022-08-23T05:34:05.199Z,95137.88
2022-08-23T05:37:02.405Z,95133.75
2022-08-23T05:39:41.241Z,95135.88
2022-08-23T05:42:15.010Z,95137.72
2022-08-23T05:44:45.485Z,95129.78
2022-08-23T05:47:16.425Z,95134.53
2022-08-23T05:49:52.955Z,95137.72
2022-08-23T05:52:21.715Z,95136.63
2022-08-23T05:54:51.117Z,95148.25
2022-08-23T05:57:38.778Z,95140.56
2022-08-23T06:00:11.746Z,95147.13
2022-08-23T06:02:46.919Z,95150.28
2022-08-23T06:05:15.426Z,95143.94
2022-08-23T06:07:45.496Z,95150.78
2022-08-23T06:10:16.559Z,95156.56
2022-08-23T06:12:50.162Z,95154.13
2022-08-23T06:15:18.337Z,95155.97
2022-08-23T06:17:47.702Z,95149.09
2022-08-23T06:20:16.625Z,95153.03
2022-08-23T06:23:07.963Z,95154.84
2022-08-23T06:25:39.850Z,95152.97
2022-08-23T06:28:12.048Z,95157.19
2022-08-23T06:30:43.511Z,95151.56
2022-08-23T06:33:44.318Z,95152.06
2022-08-23T06:36:37.384Z,95152.50
2022-08-23T06:39:22.574Z,95151.38
2022-08-23T06:42:37.434Z,95151.91
2022-08-23T06:45:06.918Z,95145.97
2022-08-23T06:47:48.172Z,95155.50
2022-08-23T06:50:16.183Z,95161.25
2022-08-23T06:53:06.998Z,95161.16
2022-08-23T06:55:44.068Z,95155.72
2022-08-23T06:58:42.201Z,95153.53
2022-08-23T07:01:48.710Z,95154.31
2022-08-23T07:04:25.713Z,95153.97
2022-08-23T07:07:11.635Z,95153.28
2022-08-23T07:09:41.656Z,95151.00
2022-08-23T07:12:11.012Z,95153.97
2022-08-23T07:14:44.190Z,95153.31
2022-08-23T07:17:14.480Z,95156.56
2022-08-23T07:19:44.124Z,95158.19
2022-08-23T07:22:12.640Z,95165.47
2022-08-23T07:24:42.956Z,95165.97
2022-08-23T07:27:12.448Z,95163.81
2022-08-23T07:30:09.788Z,95164.41
2022-08-23T07:32:40.656Z,95162.66
2022-08-23T07:35:29.024Z,95165.16
2022-08-23T07:38:00.114Z,95159.84
2022-08-23T07:40:38.777Z,95167.72
2022-08-23T07:43:08.965Z,95165.72
2022-08-23T07:45:40.687Z,95171.47
2022-08-23T07:48:12.004Z,95164.19
2022-08-23T07:51:01.291Z,95172.41
2022-08-23T07:53:37.727Z,95166.00
2022-08-23T07:56:08.625Z,95169.16
2022-08-23T07:59:02.830Z,95164.97
2022-08-23T08:01:43.670Z,95170.38
2022-08-23T08:04:12.568Z,95167.81
2022-08-23T08:06:59.796Z,95161.59
2022-08-23T08:09:35.545Z,95160.72
2022-08-23T08:12:03.815Z,95169.44
2022-08-23T08:14:32.911Z,95167.94
2022-08-23T08:17:06.830Z,95166.41
2022-08-23T08:19:55.083Z,95167.56
2022-08-23T08:22:28.642Z,95167.56
2022-08-23T08:25:09.081Z,95169.31
2022-08-23T08:27:38.436Z,95172.50
2022-08-23T08:30:09.146Z,95176.25
2022-08-23T08:32:47.065Z,95174.09
2022-08-23T08:35:16.443Z,95174.50
2022-08-23T08:37:44.842Z,95171.16
2022-08-23T08:40:13.208Z,95171.16
2022-08-23T08:42:54.888Z,95160.44
2022-08-23T08:45:26.292Z,95164.09
2022-08-23T08:48:03.867Z,95155.03
2022-08-23T08:50:43.779Z,95154.47
2022-08-23T08:53:16.785Z,95156.81
2022-08-23T08:56:09.306Z,95162.94
2022-08-23T08:58:47.112Z,95161.94
2022-08-23T09:01:17.355Z,95161.53
2022-08-23T09:03:48.331Z,95159.97
2022-08-23T09:06:25.692Z,95162.13
2022-08-23T09:09:09.918Z,95159.78
2022-08-23T09:11:52.720Z,95155.22
2022-08-23T09:14:45.923Z,95154.63
2022-08-23T09:17:21.342Z,95141.59
2022-08-23T09:19:57.062Z,95138.97
2022-08-23T09:22:33.787Z,95143.31
2022-08-23T09:25:02.028Z,95138.34
2022-08-23T09:27:40.068Z,95141.56
2022-08-23T09:30:10.112Z,95141.47
2022-08-23T09:32:41.216Z,95143.84
2022-08-23T09:35:17.332Z,95139.28
2022-08-23T09:37:58.999Z,95139.13
2022-08-23T09:40:33.902Z,95142.88
2022-08-23T09:43:13.952Z,95138.25
2022-08-23T09:45:53.930Z,95138.25
2022-08-23T09:48:39.048Z,95137.66
2022-08-23T09:51:19.230Z,95140.91
2022-08-23T09:53:51.368Z,95134.69
2022-08-23T09:56:26.413Z,95125.97
2022-08-23T09:58:55.568Z,95129.69
2022-08-23T10:01:39.292Z,95120.50
2022-08-23T10:04:16.141Z,95127.03
2022-08-23T10:06:47.104Z,95126.25
2022-08-23T10:09:26.500Z,95115.13
2022-08-23T10:11:56.529Z,95119.84
2022-08-23T10:14:30.059Z,95116.38
2022-08-23T10:17:09.045Z,95115.50
2022-08-23T10:19:47.743Z,95107.34
2022-08-23T10:22:21.113Z,95104.34
2022-08-23T10:25:19.527Z,95105.44
2022-08-23T10:28:13.902Z,95108.91
2022-08-23T10:30:50.815Z,95105.59
2022-08-23T10:33:25.618Z,95108.00
2022-08-23T10:36:03.738Z,95101.09
2022-08-23T10:38:43.874Z,95104.75
2022-08-23T10:41:24.847Z,95104.28
2022-08-23T10:44:07.735Z,95098.78
2022-08-23T10:46:43.814Z,95107.09
2022-08-23T10:49:14.186Z,95091.09
2022-08-23T10:51:46.157Z,95086.06
2022-08-23T10:54:24.163Z,95083.84
2022-08-23T10:56:59.032Z,95097.06
2022-08-23T10:59:28.507Z,95080.72
2022-08-23T11:02:08.184Z,95077.25
2022-08-23T11:04:47.739Z,95084.16
2022-08-23T11:07:29.239Z,95079.16
2022-08-23T11:10:16.693Z,95077.53
2022-08-23T11:12:58.444Z,95079.44
2022-08-23T11:15:34.445Z,95079.44
2022-08-23T11:18:08.665Z,95072.81
2022-08-23T11:21:34.093Z,95076.28
2022-08-23T11:24:50.315Z,95076.56
2022-08-23T11:27:40.453Z,95075.91
2022-08-23T11:30:44.987Z,95071.50
2022-08-23T11:33:24.353Z,95072.31
2022-08-23T11:35:56.508Z,95073.72
2022-08-23T11:39:03.119Z,95068.63
2022-08-23T11:41:34.085Z,95073.66
2022-08-23T11:44:28.367Z,95065.16
2022-08-23T11:47:01.241Z,95064.78
2022-08-23T11:50:04.522Z,95061.00
2022-08-23T11:53:03.100Z,95065.25
2022-08-23T11:55:55.554Z,95056.63
2022-08-23T11:58:27.601Z,95065.91
2022-08-23T12:01:06.784Z,95075.16
2022-08-23T12:03:44.640Z,95075.50
2022-08-23T12:06:43.011Z,95072.50
2022-08-23T12:09:53.670Z,95068.88
2022-08-23T12:12:27.746Z,95061.88
2022-08-23T12:14:58.077Z,95074.47
2022-08-23T12:18:03.379Z,95060.75
2022-08-23T12:20:34.533Z,95059.09
2022-08-23T12:23:15.215Z,95070.63
2022-08-23T12:25:43.968Z,95059.72
2022-08-23T12:28:31.449Z,95050.06
2022-08-23T12:31:07.811Z,95055.84
2022-08-23T12:33:52.287Z,95062.94
2022-08-23T12:36:30.131Z,95061.19
2022-08-23T12:39:04.914Z,95061.47
2022-08-23T12:41:37.092Z,95056.97
2022-08-23T12:44:08.350Z,95064.84
2022-08-23T12:46:42.516Z,95062.78
2022-08-23T12:49:22.982Z,95056.78
2022-08-23T12:51:56.643Z,95068.41
2022-08-23T12:54:34.572Z,95063.28
2022-08-23T12:57:10.345Z,95070.47
2022-08-23T12:59:47.366Z,95057.41
2022-08-23T13:02:21.440Z,95064.63
2022-08-23T13:04:49.438Z,95045.66
2022-08-23T13:07:23.101Z,95068.00
2022-08-23T13:09:53.655Z,95050.09
2022-08-23T13:12:24.272Z,95051.41
2022-08-23T13:14:54.500Z,95056.16
2022-08-23T13:17:32.993Z,95055.97
2022-08-23T13:20:23.777Z,95048.09
2022-08-23T13:23:02.904Z,95052.44
2022-08-23T13:25:34.831Z,95044.00
2022-08-23T13:28:05.975Z,95048.97
2022-08-23T13:30:36.532Z,95043.59
2022-08-23T13:33:22.911Z,95051.22
2022-08-23T13:35:53.820Z,95046.34
2022-08-23T13:38:27.055Z,95033.38
2022-08-23T13:41:01.981Z,95040.28
2022-08-23T13:43:34.896Z,95048.59
2022-08-23T13:46:15.801Z,95048.72
2022-08-23T13:48:52.081Z,95058.56
2022-08-23T13:51:29.931Z,95041.91
2022-08-23T13:54:01.338Z,95039.00
2022-08-23T13:56:31.288Z,95039.91
2022-08-23T13:59:02.594Z,95032.75
2022-08-23T14:01:30.978Z,95040.56
2022-08-23T14:03:59.255Z,95038.03
2022-08-23T14:06:27.224Z,95042.81
2022-08-23T14:08:55.238Z,95037.75
2022-08-23T14:11:24.554Z,95029.91
2022-08-23T14:13:53.141Z,95024.31
2022-08-23T14:16:34.355Z,95022.19
2022-08-23T14:20:31.282Z,95027.78
2022-08-23T14:21:53.338Z,95038.09
2022-08-23T14:24:22.203Z,95024.47
2022-08-23T14:26:52.645Z,95031.53
2022-08-23T14:29:22.611Z,95039.25
2022-08-23T14:31:51.231Z,95035.44
2022-08-23T14:34:19.269Z,95030.75
2022-08-23T14:39:35.425Z,95028.41
2022-08-23T14:42:05.612Z,95036.19
2022-08-23T14:44:36.224Z,95024.06
2022-08-23T14:47:05.774Z,95031.88
2022-08-23T14:49:34.222Z,95025.09
2022-08-23T14:52:02.273Z,95023.56
2022-08-23T14:54:30.647Z,95026.09
2022-08-23T14:56:58.876Z,95029.84
2022-08-23T14:59:28.361Z,95032.72
2022-08-23T15:01:56.784Z,95031.16
2022-08-23T15:04:25.879Z,95027.75
2022-08-23T15:07:19.642Z,95028.88
2022-08-23T15:09:48.726Z,95029.34
2022-08-23T15:15:12.107Z,95029.50
2022-08-23T15:17:47.900Z,95028.44
2022-08-23T15:20:16.546Z,95031.16
2022-08-23T15:22:45.222Z,95021.78
2022-08-23T15:25:24.887Z,95027.72
2022-08-23T15:27:53.322Z,95029.69
2022-08-23T15:30:24.666Z,95024.03
2022-08-23T15:32:56.540Z,95028.06
2022-08-23T15:35:25.754Z,95022.13
2022-08-23T15:37:54.600Z,95020.34
2022-08-23T15:40:23.555Z,95027.00
2022-08-23T15:42:51.658Z,95029.44
2022-08-23T15:45:19.618Z,95032.56
2022-08-23T15:47:52.725Z,95020.41
2022-08-23T15:50:24.715Z,95026.31
2022-08-23T15:52:53.219Z,95014.16
2022-08-23T15:55:21.893Z,95022.69
2022-08-23T15:57:53.787Z,95017.44
2022-08-23T16:00:24.221Z,95011.38
2022-08-23T16:03:27.847Z,95021.78
2022-08-23T16:05:45.156Z,95011.06
2022-08-23T16:08:19.604Z,95008.53
2022-08-23T16:10:47.623Z,95015.31
2022-08-23T16:13:15.733Z,95016.38
2022-08-23T16:15:43.982Z,95021.84
2022-08-23T16:18:13.911Z,95025.84
2022-08-23T16:20:42.053Z,95023.84
2022-08-23T16:23:10.155Z,95024.91
2022-08-23T16:25:38.542Z,95019.44
2022-08-23T16:28:07.526Z,95021.00
2022-08-23T16:30:35.532Z,95016.88
2022-08-23T16:33:03.969Z,95026.09
2022-08-23T16:35:33.548Z,95022.25
2022-08-23T16:38:01.566Z,95026.31
2022-08-23T16:40:29.594Z,95023.78
2022-08-23T16:42:57.670Z,95021.53
2022-08-23T16:45:26.248Z,95023.66
2022-08-23T16:47:54.661Z,95021.78
2022-08-23T16:50:22.955Z,95026.72
2022-08-23T16:52:52.373Z,95027.44
2022-08-23T16:55:20.831Z,95023.19
2022-08-23T16:57:48.771Z,95023.75
2022-08-23T17:00:17.392Z,95024.53
2022-08-23T17:02:45.754Z,95026.44
2022-08-23T17:05:16.708Z,95026.44
2022-08-23T17:07:44.742Z,95021.72
2022-08-23T17:10:15.866Z,95034.06
2022-08-23T17:12:47.725Z,95033.72
2022-08-23T17:15:20.312Z,95034.16
2022-08-23T17:17:48.964Z,95029.56
2022-08-23T17:20:18.189Z,95036.59
2022-08-23T17:22:47.287Z,95031.09
2022-08-23T17:25:18.120Z,95037.47
2022-08-23T17:27:47.983Z,95051.66
2022-08-23T17:30:19.062Z,95037.16
2022-08-23T17:32:47.860Z,95044.34
2022-08-23T17:35:17.247Z,95044.97
2022-08-23T17:37:45.259Z,95040.78
2022-08-23T17:40:17.550Z,95043.00
2022-08-23T17:42:49.908Z,95045.94
2022-08-23T17:45:18.891Z,95049.75
2022-08-23T17:47:47.304Z,95048.28
2022-08-23T17:50:16.715Z,95053.78
2022-08-23T17:52:45.073Z,95059.84
2022-08-23T17:55:18.423Z,95060.41
2022-08-23T17:57:49.333Z,95060.28
2022-08-23T18:00:20.093Z,95074.19
2022-08-23T18:02:48.140Z,95072.47
2022-08-23T18:05:16.247Z,95074.34
2022-08-23T18:07:44.525Z,95073.53
2022-08-23T18:10:13.348Z,95072.94
2022-08-23T18:12:41.741Z,95071.09
2022-08-23T18:15:12.494Z,95069.03
2022-08-23T18:17:41.582Z,95073.66
2022-08-23T18:20:11.916Z,95082.75
2022-08-23T18:22:40.533Z,95080.50
2022-08-23T18:25:10.335Z,95083.59
2022-08-23T18:27:55.915Z,95083.00
2022-08-23T18:30:25.422Z,95087.81
2022-08-23T18:32:53.367Z,95090.44
2022-08-23T18:35:21.914Z,95092.34
2022-08-23T18:37:49.959Z,95086.75
2022-08-23T18:40:18.020Z,95084.72
2022-08-23T18:42:46.122Z,95086.16
2022-08-23T18:45:15.034Z,95103.19
2022-08-23T18:47:44.335Z,95106.97
2022-08-23T18:50:13.480Z,95107.47
2022-08-23T18:52:41.539Z,95108.63
2022-08-23T18:55:10.275Z,95114.31
2022-08-23T18:57:38.601Z,95117.16
2022-08-23T19:00:10.268Z,95117.19
2022-08-23T19:02:38.235Z,95114.31
2022-08-23T19:05:08.881Z,95117.16
2022-08-23T19:07:36.849Z,95122.22
2022-08-23T19:10:05.888Z,95115.59
2022-08-23T19:12:34.365Z,95115.59
2022-08-23T19:15:02.404Z,95120.94
2022-08-23T19:17:30.428Z,95130.06
2022-08-23T19:19:59.977Z,95126.28
2022-08-23T19:22:29.757Z,95124.09
2022-08-23T19:24:57.697Z,95133.69
2022-08-23T19:27:25.809Z,95136.38
2022-08-23T19:29:53.819Z,95135.09
2022-08-23T19:32:22.017Z,95144.06
2022-08-23T19:34:50.577Z,95141.38
2022-08-23T19:37:20.734Z,95142.16
2022-08-23T19:39:52.702Z,95140.75
2022-08-23T19:42:21.552Z,95152.84
2022-08-23T19:44:49.745Z,95160.22
2022-08-23T19:47:19.822Z,95158.03
2022-08-23T19:49:49.491Z,95149.53
2022-08-23T19:52:17.501Z,95155.19
2022-08-23T19:54:45.564Z,95154.09
2022-08-23T19:57:14.967Z,95151.75
2022-08-23T19:59:43.013Z,95153.31
2022-08-23T20:02:13.952Z,95150.97
2022-08-23T20:04:42.116Z,95147.50
2022-08-23T20:07:10.169Z,95154.19
2022-08-23T20:09:38.415Z,95156.41
2022-08-23T20:12:07.671Z,95157.88
2022-08-23T20:14:36.976Z,95161.75
2022-08-23T20:17:07.528Z,95163.94
2022-08-23T20:19:36.304Z,95165.03
2022-08-23T20:22:18.416Z,95159.22
2022-08-23T20:24:52.106Z,95160.78
2022-08-23T20:27:25.459Z,95159.84
2022-08-23T20:30:01.504Z,95157.16
2022-08-23T20:32:31.265Z,95154.34
2022-08-23T20:34:59.299Z,95151.00
2022-08-23T20:37:27.549Z,95146.75
2022-08-23T20:39:55.695Z,95160.25
2022-08-23T20:42:23.829Z,95148.78
2022-08-23T20:44:52.148Z,95152.56
2022-08-23T20:47:21.549Z,95155.53
2022-08-23T20:49:49.561Z,95155.16
2022-08-23T20:52:18.378Z,95153.09
2022-08-23T20:54:46.943Z,95159.56
2022-08-23T20:57:14.956Z,95155.00
2022-08-23T20:59:45.018Z,95158.59
2022-08-23T21:02:13.936Z,95156.09
2022-08-23T21:04:43.434Z,95155.00
2022-08-23T21:07:12.080Z,95154.06
2022-08-23T21:09:40.028Z,95156.41
2022-08-23T21:12:08.360Z,95155.63
2022-08-23T21:14:36.468Z,95151.84
2022-08-23T21:17:04.510Z,95161.91
2022-08-23T21:19:32.448Z,95155.16
2022-08-23T21:22:01.805Z,95154.38
2022-08-23T21:24:29.937Z,95153.44
2022-08-23T21:26:57.956Z,95161.13
2022-08-23T21:29:25.952Z,95159.56
2022-08-23T21:31:53.999Z,95158.91
2022-08-23T21:34:21.973Z,95163.03
2022-08-23T21:36:51.283Z,95160.41
2022-08-23T21:39:21.071Z,95159.94
2022-08-23T21:41:49.379Z,95164.56
2022-08-23T21:44:21.435Z,95163.97
2022-08-23T21:46:50.107Z,95170.31
2022-08-23T21:49:20.881Z,95163.84
2022-08-23T21:51:49.425Z,95168.78
2022-08-23T21:54:18.749Z,95171.13
2022-08-23T21:56:48.743Z,95167.28
2022-08-23T21:59:18.633Z,95166.81
2022-08-23T22:01:47.001Z,95171.13
2022-08-23T22:04:16.647Z,95168.59
2022-08-23T22:06:47.048Z,95173.91
2022-08-23T22:09:18.781Z,95167.00
2022-08-23T22:11:49.940Z,95167.81
2022-08-23T22:14:21.407Z,95166.47
2022-08-23T22:16:55.410Z,95168.44
2022-08-23T22:19:23.698Z,95166.28
2022-08-23T22:21:52.546Z,95168.25
2022-08-23T22:24:25.554Z,95170.59
2022-08-23T22:26:56.327Z,95164.91
2022-08-23T22:29:24.815Z,95173.59
2022-08-23T22:31:52.796Z,95175.19
2022-08-23T22:34:21.153Z,95175.66
2022-08-23T22:36:52.161Z,95178.50
2022-08-23T22:39:20.770Z,95173.78
2022-08-23T22:41:48.751Z,95175.19
2022-08-23T22:44:18.598Z,95170.34
2022-08-23T22:46:46.886Z,95173.25
2022-08-23T22:49:14.985Z,95169.72
2022-08-23T22:51:43.925Z,95172.66
2022-08-23T22:54:14.348Z,95167.63
2022-08-23T22:56:45.101Z,95179.31
2022-08-23T22:59:14.333Z,95173.78
2022-08-23T23:01:47.996Z,95178.53
2022-08-23T23:04:19.125Z,95167.09
2022-08-23T23:06:49.044Z,95166.78
2022-08-23T23:09:17.554Z,95166.88
2022-08-23T23:11:46.635Z,95168.03
2022-08-23T23:14:15.740Z,95172.38
2022-08-23T23:16:46.465Z,95170.59
2022-08-23T23:19:31.993Z,95171.00
2022-08-23T23:22:00.643Z,95173.72
2022-08-23T23:24:30.883Z,95170.59
2022-08-23T23:26:59.854Z,95161.53
2022-08-23T23:29:28.779Z,95168.41
2022-08-23T23:31:59.066Z,95163.09
2022-08-23T23:34:28.003Z,95170.97
2022-08-23T23:36:57.218Z,95165.94
2022-08-23T23:39:25.789Z,95170.19
2022-08-23T23:41:54.303Z,95171.16
2022-08-23T23:44:29.911Z,95164.69
2022-08-23T23:47:02.205Z,95172.94
2022-08-23T23:49:32.562Z,95165.25
2022-08-23T23:52:02.366Z,95164.09
2022-08-23T23:54:30.447Z,95167.03
2022-08-23T23:56:58.532Z,95167.25
2022-08-23T23:59:27.056Z,95168.69
